| time (UTC) | temp F | wind direction | speed MPH | gust MPH | rain 1hr in | rain 24hr in | rain mn in | humidity % | barometer mb |
| 20260905213703 | 99 | 44 | 2.0 | 8.0 | 0.00 | 0.00 | 0.00 | ||
| 20260905212703 | 99 | 353 | 0.0 | 6.0 | 0.00 | 0.00 | 0.00 | ||
| 20260905211633 | 99 | 346 | 2.0 | 9.0 | 0.00 | 0.00 | 0.00 | ||
| 20260905210603 | 99 | 329 | 3.0 | 7.0 | 0.00 | 0.00 | 0.00 | ||
| 20260905205533 | 98 | 330 | 5.0 | 9.0 | 0.00 | 0.00 | 0.00 | ||
| 20260905204533 | 98 | 319 | 7.0 | 13.0 | 0.00 | 0.00 | 0.00 | ||
| 20260905203503 | 98 | 333 | 5.0 | 13.0 | 0.00 | 0.00 | 0.00 | ||
| 20260905202433 | 99 | 308 | 7.0 | 10.0 | 0.00 | 0.00 | 0.00 | ||
| 20260905201433 | 100 | 340 | 5.0 | 8.0 | 0.00 | 0.00 | 0.00 | ||
| 20260905200403 | 97 | 322 | 3.0 | 10.0 | 0.00 | 0.00 | 0.00 | ||
| 20260905195403 | 100 | 48 | 3.0 | 11.0 | 0.00 | 0.00 | 0.00 | ||
| 20260905194333 | 101 | 7 | 6.0 | 10.0 | 0.00 | 0.00 | 0.00 | ||
| 20260905193333 | 99 | 321 | 8.0 | 12.0 | 0.00 | 0.00 | 0.00 | ||
| 20260905192306 | 98 | 14 | 5.0 | 12.0 | 0.00 | 0.00 | 0.00 | ||
| 20260905191303 | 99 | 326 | 5.0 | 9.0 | 0.00 | 0.00 | 0.00 | ||
| 20260905190233 | 99 | 335 | 5.0 | 10.0 | 0.00 | 0.00 | 0.00 | ||
| 20260905185233 | 98 | 10 | 7.0 | 12.0 | 0.00 | 0.00 | 0.00 | ||
| 20260905184203 | 98 | 308 | 6.0 | 9.0 | 0.00 | 0.00 | 0.00 | ||
| 20260905183133 | 98 | 298 | 1.0 | 8.0 | 0.00 | 0.00 | 0.00 | ||
| 20260905182133 | 97 | 298 | 5.0 | 9.0 | 0.00 | 0.00 | 0.00 | ||
| 20260905181103 | 97 | 353 | 5.0 | 9.0 | 0.00 | 0.00 | 0.00 | ||
| 20260905180033 | 98 | 301 | 5.0 | 8.0 | 0.00 | 0.00 | 0.00 | ||
| 20260905175003 | 97 | 315 | 4.0 | 8.0 | 0.00 | 0.00 | 0.00 | ||
| 20260905173933 | 98 | 297 | 6.0 | 9.0 | 0.00 | 0.00 | 0.00 | ||
| 20260905172903 | 97 | 259 | 3.0 | 10.0 | 0.00 | 0.00 | 0.00 | ||
| 20260905171903 | 97 | 304 | 2.0 | 8.0 | 0.00 | 0.00 | 0.00 | ||
| 20260905170903 | 98 | 333 | 1.0 | 7.0 | 0.00 | 0.00 | 0.00 | ||
| 20260905165833 | 96 | 326 | 3.0 | 7.0 | 0.00 | 0.00 | 0.00 | ||
| 20260905164833 | 97 | 329 | 0.0 | 6.0 | 0.00 | 0.00 | 0.00 | ||
| 20260905163833 | 95 | 333 | 2.0 | 7.0 | 0.00 | 0.00 | 0.00 | ||
| 20260905162803 | 94 | 323 | 3.0 | 7.0 | 0.00 | 0.00 | 0.00 | ||
| 20260905161733 | 94 | 321 | 1.0 | 6.0 | 0.00 | 0.00 | 0.00 | ||
| 20260905160703 | 94 | 295 | 5.0 | 8.0 | 0.00 | 0.00 | 0.00 | ||
| 20260905155633 | 93 | 323 | 0.0 | 6.0 | 0.00 | 0.00 | 0.00 | ||
| 20260905154603 | 94 | 295 | 3.0 | 8.0 | 0.00 | 0.00 | 0.00 | ||
| 20260905153533 | 93 | 277 | 2.0 | 7.0 | 0.00 | 0.00 | 0.00 | ||
| 20260905152503 | 92 | 300 | 1.0 | 7.0 | 0.00 | 0.00 | 0.00 | ||
| 20260905151433 | 91 | 300 | 4.0 | 8.0 | 0.00 | 0.00 | 0.00 | ||
| 20260905150433 | 91 | 302 | 4.0 | 7.0 | 0.00 | 0.00 | 0.00 | ||
| 20260905145403 | 90 | 322 | 6.0 | 9.0 | 0.00 | 0.00 | 0.00 | ||
| 20260905144403 | 90 | 300 | 5.0 | 8.0 | 0.00 | 0.00 | 0.00 | ||
| 20260905143333 | 89 | 309 | 3.0 | 7.0 | 0.00 | 0.00 | 0.00 | ||
| 20260905143135 | 89 | 330 | 3.0 | 5.0 | 0.00 | 0.00 | 0.00 | ||
| 20260905142717 | 89 | 330 | 3.0 | 5.0 | 0.00 | 0.00 | 0.00 | ||
| 20260905142333 | 89 | 330 | 3.0 | 5.0 | 0.00 | 0.00 | 0.00 | ||
| 20260905141631 | 88 | 312 | 4.0 | 6.0 | 0.00 | 0.00 | 0.00 | ||
| 20260905141333 | 88 | 312 | 4.0 | 6.0 | 0.00 | 0.00 | 0.00 | ||
| 20260905140303 | 88 | 283 | 2.0 | 4.0 | 0.00 | 0.00 | 0.00 | ||
| 20260905135306 | 87 | 283 | 3.0 | 4.0 | 0.00 | 0.00 | 0.00 | ||
| 20260905134233 | 86 | 245 | 0.0 | 0.0 | 0.00 | 0.00 | 0.00 | ||
| 20260905133233 | 83 | 245 | 0.0 | 1.0 | 0.00 | 0.00 | 0.00 | ||
| 20260905132203 | 81 | 262 | 0.0 | 0.0 | 0.00 | 0.00 | 0.00 | ||
| 20260905131133 | 80 | 262 | 0.0 | 0.0 | 0.00 | 0.00 | 0.00 | ||
| 20260905125401 | 78 | 262 | 0.0 | 0.0 | 0.00 | 0.00 | 0.00 | ||
| 20260905125033 | 78 | 262 | 0.0 | 0.0 | 0.00 | 0.00 | 0.00 | ||
| 20260905124033 | 78 | 262 | 0.0 | 0.0 | 0.00 | 0.00 | 0.00 | ||
| 20260905123033 | 77 | 262 | 0.0 | 0.0 | 0.00 | 0.00 | 0.00 | ||
| 20260905122003 | 76 | 262 | 0.0 | 0.0 | 0.00 | 0.00 | 0.00 | ||
| 20260905121003 | 75 | 262 | 0.0 | 0.0 | 0.00 | 0.00 | 0.00 | ||
| 20260905120449 | 75 | 262 | 0.0 | 0.0 | 0.00 | 0.00 | 0.00 | ||
| 20260905120003 | 75 | 262 | 0.0 | 0.0 | 0.00 | 0.00 | 0.00 | ||
| 20260905115310 | 75 | 262 | 0.0 | 0.0 | 0.00 | 0.00 | 0.00 | ||
| 20260905114933 | 75 | 262 | 0.0 | 0.0 | 0.00 | 0.00 | 0.00 | ||
| 20260905114235 | 75 | 262 | 0.0 | 0.0 | 0.00 | 0.00 | 0.00 | ||
| 20260905113933 | 75 | 262 | 0.0 | 0.0 | 0.00 | 0.00 | 0.00 | ||
| 20260905112903 | 75 | 262 | 0.0 | 0.0 | 0.00 | 0.00 | 0.00 | ||
| 20260905111902 | 75 | 262 | 0.0 | 0.0 | 0.00 | 0.00 | 0.00 | ||
| 20260905110832 | 75 | 262 | 0.0 | 0.0 | 0.00 | 0.00 | 0.00 | ||
| 20260905110340 | 75 | 262 | 0.0 | 0.0 | 0.00 | 0.00 | 0.00 | ||
| 20260905105802 | 75 | 262 | 0.0 | 0.0 | 0.00 | 0.00 | 0.00 | ||
| 20260905104802 | 76 | 262 | 0.0 | 0.0 | 0.00 | 0.00 | 0.00 | ||
| 20260905103802 | 76 | 262 | 0.0 | 0.0 | 0.00 | 0.00 | 0.00 | ||
| 20260905102732 | 76 | 262 | 0.0 | 0.0 | 0.00 | 0.00 | 0.00 | ||
| 20260905101702 | 77 | 262 | 0.0 | 1.0 | 0.00 | 0.00 | 0.00 | ||
| 20260905100632 | 77 | 267 | 0.0 | 1.0 | 0.00 | 0.00 | 0.00 | ||
| 20260905100144 | 77 | 240 | 0.0 | 0.0 | 0.00 | 0.00 | 0.00 | ||
| 20260905095904 | 78 | 274 | 1.0 | 1.0 | 0.00 | 0.00 | 0.00 | ||
| 20260905095602 | 78 | 274 | 1.0 | 1.0 | 0.00 | 0.00 | 0.00 | ||
| 20260905094924 | 77 | 240 | 0.0 | 0.0 | 0.00 | 0.00 | 0.00 | ||
| 20260905094532 | 77 | 240 | 0.0 | 0.0 | 0.00 | 0.00 | 0.00 | ||
| 20260905093502 | 78 | 240 | 0.0 | 1.0 | 0.00 | 0.00 | 0.00 | ||
| 20260905092826 | 77 | 231 | 0.0 | 0.0 | 0.00 | 0.00 | 0.00 | ||
| 20260905092432 | 77 | 231 | 0.0 | 0.0 | 0.00 | 0.00 | 0.00 | ||
| 20260905091402 | 77 | 231 | 0.0 | 2.0 | 0.00 | 0.00 | 0.00 | ||
| 20260905090402 | 78 | 271 | 1.0 | 2.0 | 0.00 | 0.00 | 0.00 | ||
| 20260905090334 | 79 | 288 | 1.0 | 2.0 | 0.00 | 0.00 | 0.00 | ||
| 20260905085402 | 79 | 288 | 1.0 | 2.0 | 0.00 | 0.00 | 0.00 | ||
| 20260905084332 | 80 | 309 | 1.0 | 2.0 | 0.00 | 0.00 | 0.00 | ||
| 20260905083302 | 80 | 273 | 0.0 | 5.0 | 0.00 | 0.00 | 0.00 | ||
| 20260905082232 | 80 | 300 | 2.0 | 3.0 | 0.00 | 0.00 | 0.00 | ||
| 20260905081202 | 79 | 240 | 0.0 | 2.0 | 0.00 | 0.00 | 0.00 | ||
| 20260905080132 | 80 | 270 | 1.0 | 3.0 | 0.00 | 0.00 | 0.00 | ||
| 20260905075102 | 81 | 287 | 3.0 | 4.0 | 0.00 | 0.00 | 0.00 | ||
| 20260905074032 | 81 | 302 | 3.0 | 4.0 | 0.00 | 0.00 | 0.00 | ||
| 20260905073032 | 81 | 291 | 3.0 | 5.0 | 0.00 | 0.00 | 0.00 | ||
| 20260905072002 | 81 | 291 | 3.0 | 3.0 | 0.00 | 0.00 | 0.00 | ||
| 20260905071002 | 80 | 255 | 0.0 | 3.0 | 0.00 | 0.00 | 0.00 | ||
| 20260905070002 | 81 | 291 | 3.0 | 4.0 | 0.00 | 0.00 | 0.00 | ||
| 20260905064932 | 81 | 277 | 2.0 | 4.0 | 0.00 | 0.00 | 0.00 | ||
| 20260905063932 | 81 | 309 | 3.0 | 4.0 | 0.00 | 0.00 | 0.00 | ||
| 20260905062902 | 81 | 280 | 3.0 | 5.0 | 0.00 | 0.00 | 0.00 | ||
| 20260905061832 | 82 | 290 | 3.0 | 5.0 | 0.00 | 0.00 | 0.00 | ||
| 20260905060802 | 82 | 297 | 3.0 | 6.0 | 0.00 | 0.00 | 0.00 | ||
| 20260905055802 | 81 | 316 | 1.0 | 4.0 | 0.00 | 0.00 | 0.00 | ||
| 20260905054802 | 81 | 245 | 1.0 | 4.0 | 0.00 | 0.00 | 0.00 | ||
| 20260905053732 | 82 | 276 | 3.0 | 4.0 | 0.00 | 0.00 | 0.00 | ||
| 20260905052732 | 81 | 271 | 1.0 | 2.0 | 0.00 | 0.00 | 0.00 | ||
| 20260905051732 | 79 | 70 | 0.0 | 0.0 | 0.00 | 0.00 | 0.00 | ||
| 20260905050732 | 79 | 70 | 0.0 | 0.0 | 0.00 | 0.00 | 0.00 | ||
| 20260905045702 | 79 | 70 | 0.0 | 0.0 | 0.00 | 0.00 | 0.00 | ||
| 20260905044632 | 79 | 70 | 0.0 | 0.0 | 0.00 | 0.00 | 0.00 | ||
| 20260905043602 | 80 | 70 | 0.0 | 2.0 | 0.00 | 0.00 | 0.00 | ||
| 20260905042532 | 81 | 256 | 0.0 | 0.0 | 0.00 | 0.00 | 0.00 | ||
| 20260905041532 | 81 | 256 | 0.0 | 0.0 | 0.00 | 0.00 | 0.00 | ||
| 20260905040502 | 82 | 256 | 0.0 | 0.0 | 0.00 | 0.00 | 0.00 | ||
| 20260905035502 | 83 | 256 | 0.0 | 0.0 | 0.00 | 0.00 | 0.00 | ||
| 20260905034432 | 84 | 256 | 0.0 | 2.0 | 0.00 | 0.00 | 0.00 | ||
| 20260905033432 | 84 | 255 | 0.0 | 2.0 | 0.00 | 0.00 | 0.00 | ||
| 20260905032432 | 85 | 308 | 0.0 | 2.0 | 0.00 | 0.00 | 0.00 | ||
| 20260905031432 | 85 | 312 | 0.0 | 1.0 | 0.00 | 0.00 | 0.00 | ||
| 20260905030402 | 85 | 295 | 0.0 | 4.0 | 0.00 | 0.00 | 0.00 | ||
| 20260905025402 | 86 | 287 | 2.0 | 3.0 | 0.00 | 0.00 | 0.00 | ||
| 20260905024332 | 84 | 219 | 0.0 | 0.0 | 0.00 | 0.00 | 0.00 | ||
| 20260905023332 | 84 | 219 | 0.0 | 0.0 | 0.00 | 0.00 | 0.00 | ||
| 20260905022305 | 84 | 219 | 0.0 | 0.0 | 0.00 | 0.00 | 0.00 | ||
| 20260905021302 | 84 | 219 | 0.0 | 0.0 | 0.00 | 0.00 | 0.00 | ||
| 20260905020232 | 84 | 219 | 0.0 | 0.0 | 0.00 | 0.00 | 0.00 | ||
| 20260905015232 | 85 | 219 | 0.0 | 2.0 | 0.00 | 0.00 | 0.00 | ||
| 20260905014202 | 85 | 195 | 0.0 | 0.0 | 0.00 | 0.00 | 0.00 | ||
| 20260905013132 | 86 | 195 | 0.0 | 0.0 | 0.00 | 0.00 | 0.00 | ||
| 20260905012102 | 86 | 195 | 0.0 | 0.0 | 0.00 | 0.00 | 0.00 | ||
| 20260905011032 | 87 | 195 | 0.0 | 0.0 | 0.00 | 0.00 | 0.00 | ||
| 20260905010032 | 88 | 195 | 0.0 | 0.0 | 0.00 | 0.00 | 0.00 | ||
| 20260905005002 | 89 | 195 | 0.0 | 0.0 | 0.00 | 0.00 | 0.00 | ||
| 20260905003932 | 90 | 195 | 0.0 | 0.0 | 0.00 | 0.00 | 0.00 | ||
| 20260905002932 | 91 | 195 | 0.0 | 0.0 | 0.00 | 0.00 | 0.00 | ||
| 20260905001932 | 94 | 195 | 0.0 | 0.0 | 0.00 | 0.00 | 0.00 | ||
| 20260905000902 | 99 | 195 | 0.0 | 0.0 | 0.00 | 0.00 | 0.00 | ||
| 20260904235902 | 102 | 195 | 0.0 | 0.0 | 0.00 | 0.00 | 0.00 | ||
| 20260904234832 | 102 | 195 | 0.0 | 4.0 | 0.00 | 0.00 | 0.00 | ||
| 20260904233802 | 99 | 252 | 2.0 | 4.0 | 0.00 | 0.00 | 0.00 | ||
| 20260904232732 | 99 | 294 | 3.0 | 4.0 | 0.00 | 0.00 | 0.00 | ||
| 20260904231732 | 99 | 305 | 3.0 | 5.0 | 0.00 | 0.00 | 0.00 | ||
| 20260904230732 | 100 | 274 | 3.0 | 7.0 | 0.00 | 0.00 | 0.00 | ||
| 20260904225702 | 99 | 280 | 4.0 | 7.0 | 0.00 | 0.00 | 0.00 | ||
| 20260904224702 | 100 | 309 | 5.0 | 7.0 | 0.00 | 0.00 | 0.00 | ||
| 20260904223702 | 100 | 298 | 5.0 | 8.0 | 0.00 | 0.00 | 0.00 | ||
| 20260904222701 | 102 | 232 | 3.0 | 8.0 | 0.00 | 0.00 | 0.00 | ||
| 20260904221632 | 99 | 305 | 5.0 | 9.0 | 0.00 | 0.00 | 0.00 | ||
| 20260904220631 | 99 | 293 | 5.0 | 10.0 | 0.00 | 0.00 | 0.00 | ||
| 20260904215631 | 99 | 290 | 5.0 | 10.0 | 0.00 | 0.00 | 0.00 | ||
| 20260904214601 | 100 | 285 | 5.0 | 10.0 | 0.00 | 0.00 | 0.00 |